Bilbao Bridge — VRHY6 — position and weather

sailwx.info

Track history (hours):
 
Tides and Currents Weather Stations Pressure Air Temp Water Temp Dewpoint Dewpoint Depression Visibility Wind Speed Wind Dir Waves Ship Positions

Bilbao Bridge

Last reported at 2018-Jan-23 07:57 UTC. Time now 2018-Jan-23 08:17 UTC.
Position N 36°50' W 075°47'.

Length 268 m; draft 10.3 m.

Type: Ship (hazmat cat A). MMSI: 477866300.

Date/timePositionNaut miles runAvg speedWind from/ knotsBaromVisibWave heightAir tempDewpointWater temp
2018-Jan-23 07:57N 36°50' W 075°47'22715.1
2018-Jan-22 16:56N 40°13' W 073°36'510.1
2018-Jan-22 16:29N 40°17' W 073°39'5 9.6
2018-Jan-22 15:56N 40°21' W 073°43'4 9.7
2018-Jan-22 15:30N 40°24' W 073°46'5 9.0
2018-Jan-22 14:59N 40°27' W 073°51'5 9.4
2018-Jan-22 14:30N 40°30' W 073°56'5 9.4
2018-Jan-22 14:00N 40°32' W 074°01'5 9.2
2018-Jan-22 13:30N 40°37' W 074°03'3 6.9
2018-Jan-22 13:00N 40°39' W 074°06'2 4.2
2018-Jan-22 12:30N 40°39' W 074°09'1 2.6
2018-Jan-22 11:58N 40°41' W 074°08'0 0.0
2018-Jan-22 11:28N 40°41' W 074°08'0 0.0
2018-Jan-22 10:58N 40°41' W 074°08'0 0.0
2018-Jan-22 10:28N 40°41' W 074°08'0 0.0
2018-Jan-22 09:58N 40°41' W 074°08'0 0.0
2018-Jan-22 09:28N 40°41' W 074°08'0 0.0
2018-Jan-22 08:58N 40°41' W 074°09'0 0.0
2018-Jan-22 08:28N 40°41' W 074°08'0 0.0
2018-Jan-22 07:58N 40°41' W 074°08'0 0.0
2018-Jan-22 07:28N 40°41' W 074°08'0 0.0
2018-Jan-22 06:58N 40°41' W 074°08'0 0.0
2018-Jan-22 06:28N 40°41' W 074°08'0 0.0
2018-Jan-22 05:58N 40°41' W 074°08'0 0.0
2018-Jan-22 05:28N 40°41' W 074°08'0 0.0
2018-Jan-22 04:58N 40°41' W 074°08'0 0.0
2018-Jan-22 04:28N 40°41' W 074°09'0 0.0
2018-Jan-22 03:58N 40°41' W 074°08'0 0.0
2018-Jan-22 03:28N 40°41' W 074°08'0 0.0
2018-Jan-22 02:58N 40°41' W 074°08'0 0.0
2018-Jan-22 02:28N 40°41' W 074°08'0 0.0
2018-Jan-22 01:58N 40°41' W 074°08'0 0.0
2018-Jan-22 01:28N 40°41' W 074°08'0 0.0
2018-Jan-22 00:58N 40°41' W 074°08'0 0.0
2018-Jan-22 00:28N 40°41' W 074°08'0 0.0
2018-Jan-21 23:58N 40°41' W 074°08'0 0.0
2018-Jan-21 23:28N 40°41' W 074°08'0 0.1
2018-Jan-21 22:58N 40°41' W 074°08'0 0.1
2018-Jan-21 22:28N 40°41' W 074°08'0 0.0
2018-Jan-21 21:58N 40°41' W 074°09'0 0.0
2018-Jan-21 21:28N 40°41' W 074°09'0 0.0
2018-Jan-21 20:58N 40°41' W 074°09'0 0.0
2018-Jan-21 20:28N 40°41' W 074°08'0 0.0
2018-Jan-21 19:55N 40°41' W 074°08'0 0.0
2018-Jan-21 19:28N 40°41' W 074°08'0 0.0
2018-Jan-21 18:58N 40°41' W 074°08'0 0.0
2018-Jan-21 18:28N 40°41' W 074°08'0 0.0
2018-Jan-21 17:59N 40°41' W 074°08'0 0.0
2018-Jan-21 17:26N 40°41' W 074°08'0 0.0
2018-Jan-21 16:59N 40°41' W 074°08'0 0.0
2018-Jan-21 16:29N 40°41' W 074°09'0 0.0
2018-Jan-21 15:59N 40°41' W 074°09'0 0.0
2018-Jan-21 15:29N 40°41' W 074°09'0 0.0
2018-Jan-21 14:59N 40°41' W 074°08'0 0.0
2018-Jan-21 14:29N 40°41' W 074°08'0 0.0
2018-Jan-21 13:59N 40°41' W 074°08'0 0.0
2018-Jan-21 13:29N 40°41' W 074°08'0 0.1
2018-Jan-21 12:59N 40°41' W 074°09'0 0.0
2018-Jan-21 12:29N 40°41' W 074°08'0 0.0
2018-Jan-21 11:59N 40°41' W 074°08'0 0.0
2018-Jan-21 11:30N 40°41' W 074°08'1 1.9
2018-Jan-21 11:00N 40°40' W 074°09'2 3.8
2018-Jan-21 10:29N 40°39' W 074°06'3 5.7
2018-Jan-21 10:00N 40°37' W 074°03'4 8.6
2018-Jan-21 09:30N 40°33' W 074°02'4 8.9
2018-Jan-21 09:01N 40°30' W 073°57'5 9.4
2018-Jan-21 08:30N 40°28' W 073°52'4 8.5
2018-Jan-21 08:00N 40°26' W 073°47'3 6.9
2018-Jan-21 07:30N 40°24' W 073°43'5 9.4
2018-Jan-21 07:00N 40°21' W 073°38'  
Track history (hours):
 
Tides and Currents Weather Stations Pressure Air Temp Water Temp Dewpoint Dewpoint Depression Visibility Wind Speed Wind Dir Waves Ship Positions

Bilbao Bridge

Last reported at 2018-Jan-23 07:57 UTC. Time now 2018-Jan-23 08:17 UTC.
Position N 36°50' W 075°47'.

Length 268 m; draft 10.3 m.

Type: Ship (hazmat cat A). MMSI: 477866300.

Date/timePositionNaut miles runAvg speedWind from/ knotsBaromVisibWave heightAir tempDewpointWater temp
2018-Jan-23 07:57N 36°50' W 075°47'22715.1
2018-Jan-22 16:56N 40°13' W 073°36'510.1
2018-Jan-22 16:29N 40°17' W 073°39'5 9.6
2018-Jan-22 15:56N 40°21' W 073°43'4 9.7
2018-Jan-22 15:30N 40°24' W 073°46'5 9.0
2018-Jan-22 14:59N 40°27' W 073°51'5 9.4
2018-Jan-22 14:30N 40°30' W 073°56'5 9.4
2018-Jan-22 14:00N 40°32' W 074°01'5 9.2
2018-Jan-22 13:30N 40°37' W 074°03'3 6.9
2018-Jan-22 13:00N 40°39' W 074°06'2 4.2
2018-Jan-22 12:30N 40°39' W 074°09'1 2.6
2018-Jan-22 11:58N 40°41' W 074°08'0 0.0
2018-Jan-22 11:28N 40°41' W 074°08'0 0.0
2018-Jan-22 10:58N 40°41' W 074°08'0 0.0
2018-Jan-22 10:28N 40°41' W 074°08'0 0.0
2018-Jan-22 09:58N 40°41' W 074°08'0 0.0
2018-Jan-22 09:28N 40°41' W 074°08'0 0.0
2018-Jan-22 08:58N 40°41' W 074°09'0 0.0
2018-Jan-22 08:28N 40°41' W 074°08'0 0.0
2018-Jan-22 07:58N 40°41' W 074°08'0 0.0
2018-Jan-22 07:28N 40°41' W 074°08'0 0.0
2018-Jan-22 06:58N 40°41' W 074°08'0 0.0
2018-Jan-22 06:28N 40°41' W 074°08'0 0.0
2018-Jan-22 05:58N 40°41' W 074°08'0 0.0
2018-Jan-22 05:28N 40°41' W 074°08'0 0.0
2018-Jan-22 04:58N 40°41' W 074°08'0 0.0
2018-Jan-22 04:28N 40°41' W 074°09'0 0.0
2018-Jan-22 03:58N 40°41' W 074°08'0 0.0
2018-Jan-22 03:28N 40°41' W 074°08'0 0.0
2018-Jan-22 02:58N 40°41' W 074°08'0 0.0
2018-Jan-22 02:28N 40°41' W 074°08'0 0.0
2018-Jan-22 01:58N 40°41' W 074°08'0 0.0
2018-Jan-22 01:28N 40°41' W 074°08'0 0.0
2018-Jan-22 00:58N 40°41' W 074°08'0 0.0
2018-Jan-22 00:28N 40°41' W 074°08'0 0.0
2018-Jan-21 23:58N 40°41' W 074°08'0 0.0
2018-Jan-21 23:28N 40°41' W 074°08'0 0.1
2018-Jan-21 22:58N 40°41' W 074°08'0 0.1
2018-Jan-21 22:28N 40°41' W 074°08'0 0.0
2018-Jan-21 21:58N 40°41' W 074°09'0 0.0
2018-Jan-21 21:28N 40°41' W 074°09'0 0.0
2018-Jan-21 20:58N 40°41' W 074°09'0 0.0
2018-Jan-21 20:28N 40°41' W 074°08'0 0.0
2018-Jan-21 19:55N 40°41' W 074°08'0 0.0
2018-Jan-21 19:28N 40°41' W 074°08'0 0.0
2018-Jan-21 18:58N 40°41' W 074°08'0 0.0
2018-Jan-21 18:28N 40°41' W 074°08'0 0.0
2018-Jan-21 17:59N 40°41' W 074°08'0 0.0
2018-Jan-21 17:26N 40°41' W 074°08'0 0.0
2018-Jan-21 16:59N 40°41' W 074°08'0 0.0
2018-Jan-21 16:29N 40°41' W 074°09'0 0.0
2018-Jan-21 15:59N 40°41' W 074°09'0 0.0
2018-Jan-21 15:29N 40°41' W 074°09'0 0.0
2018-Jan-21 14:59N 40°41' W 074°08'0 0.0
2018-Jan-21 14:29N 40°41' W 074°08'0 0.0
2018-Jan-21 13:59N 40°41' W 074°08'0 0.0
2018-Jan-21 13:29N 40°41' W 074°08'0 0.1
2018-Jan-21 12:59N 40°41' W 074°09'0 0.0
2018-Jan-21 12:29N 40°41' W 074°08'0 0.0
2018-Jan-21 11:59N 40°41' W 074°08'0 0.0
2018-Jan-21 11:30N 40°41' W 074°08'1 1.9
2018-Jan-21 11:00N 40°40' W 074°09'2 3.8
2018-Jan-21 10:29N 40°39' W 074°06'3 5.7
2018-Jan-21 10:00N 40°37' W 074°03'4 8.6
2018-Jan-21 09:30N 40°33' W 074°02'4 8.9
2018-Jan-21 09:01N 40°30' W 073°57'5 9.4
2018-Jan-21 08:30N 40°28' W 073°52'4 8.5
2018-Jan-21 08:00N 40°26' W 073°47'3 6.9
2018-Jan-21 07:30N 40°24' W 073°43'5 9.4
2018-Jan-21 07:00N 40°21' W 073°38'  

Dump ship's entire track history